Time,TemperatureF,DewpointF,PressureIn,WindDirection,WindDirectionDegrees,WindSpeedMPH,WindSpeedGustMPH,Humidity,HourlyPrecipIn,Conditions,Clouds,dailyrainin,SoftwareType,DateUTC
2013-11-26 00:14:00,35.8,25.2,29.99,ENE,67,5.8,-999.0,65,-99.99,,,0.00,Acu-Link.com,2013-11-26 05:14:00,
2013-11-26 00:29:00,35.4,26.3,29.98,ESE,112,5.8,-999.0,69,-99.99,,,0.00,Acu-Link.com,2013-11-26 05:29:00,
2013-11-26 00:44:00,34.5,28.4,29.97,ESE,112,1.7,-999.0,78,-99.99,,,0.00,Acu-Link.com,2013-11-26 05:44:00,
2013-11-26 00:59:00,33.8,28.6,29.97,ESE,112,6.3,-999.0,81,-99.99,,,0.00,Acu-Link.com,2013-11-26 05:59:00,
2013-11-26 01:14:00,33.2,29.8,29.97,SE,135,0.0,-999.0,87,-99.99,,,0.00,Acu-Link.com,2013-11-26 06:14:00,
2013-11-26 01:29:00,32.7,30.9,29.95,NE,45,1.7,-999.0,93,-99.99,,,0.00,Acu-Link.com,2013-11-26 06:29:00,
2013-11-26 01:45:00,32.3,30.8,29.95,SE,135,2.2,-999.0,94,-99.99,,,0.01,Acu-Link.com,2013-11-26 06:45:00,
2013-11-26 02:00:00,32.0,31.0,29.95,SE,135,2.7,-999.0,96,-99.99,,,0.01,Acu-Link.com,2013-11-26 07:00:00,
2013-11-26 02:15:00,32.0,31.0,29.96,North,0,0.0,-999.0,96,-99.99,,,0.02,Acu-Link.com,2013-11-26 07:15:00,
2013-11-26 02:30:00,31.8,31.0,29.95,East,90,6.3,-999.0,97,-99.99,,,0.04,Acu-Link.com,2013-11-26 07:30:00,
2013-11-26 02:45:00,31.6,31.1,29.95,ESE,112,5.8,-999.0,98,-99.99,,,0.06,Acu-Link.com,2013-11-26 07:45:00,
2013-11-26 03:01:00,31.6,31.1,29.94,ENE,67,2.7,-999.0,98,-99.99,,,0.06,Acu-Link.com,2013-11-26 08:01:00,
2013-11-26 03:16:00,31.6,31.1,29.93,SE,135,3.7,-999.0,98,-99.99,,,0.10,Acu-Link.com,2013-11-26 08:16:00,
2013-11-26 03:31:00,31.6,31.4,29.91,ENE,67,4.2,-999.0,99,-99.99,,,0.12,Acu-Link.com,2013-11-26 08:31:00,
2013-11-26 03:46:00,31.6,31.4,29.91,ENE,67,0.0,-999.0,99,-99.99,,,0.12,Acu-Link.com,2013-11-26 08:46:00,
2013-11-26 04:01:00,31.6,31.4,29.90,East,90,2.2,-999.0,99,-99.99,,,0.12,Acu-Link.com,2013-11-26 09:01:00,
2013-11-26 04:16:00,31.6,31.4,29.87,SE,135,1.7,-999.0,99,-99.99,,,0.14,Acu-Link.com,2013-11-26 09:16:00,
2013-11-26 04:31:00,31.6,31.4,29.86,East,90,2.7,-999.0,99,-99.99,,,0.14,Acu-Link.com,2013-11-26 09:31:00,
2013-11-26 04:46:00,31.6,31.4,29.86,East,90,0.0,-999.0,99,-99.99,,,0.14,Acu-Link.com,2013-11-26 09:46:00,
2013-11-26 05:02:00,31.6,31.4,29.85,East,90,2.7,-999.0,99,-99.99,,,0.14,Acu-Link.com,2013-11-26 10:02:00,
2013-11-26 05:17:00,32.0,31.8,29.85,NE,45,4.7,-999.0,99,-99.99,,,0.14,Acu-Link.com,2013-11-26 10:17:00,
2013-11-26 05:32:00,32.0,31.8,29.85,NE,45,2.2,-999.0,99,-99.99,,,0.14,Acu-Link.com,2013-11-26 10:32:00,
2013-11-26 05:47:00,32.2,32.0,29.84,ENE,67,0.0,-999.0,99,-99.99,,,0.14,Acu-Link.com,2013-11-26 10:47:00,
2013-11-26 06:03:00,32.2,32.0,29.83,SSW,202,3.2,-999.0,99,-99.99,,,0.14,Acu-Link.com,2013-11-26 11:03:00,
2013-11-26 06:18:00,32.2,32.0,29.83,ENE,67,2.2,-999.0,99,-99.99,,,0.15,Acu-Link.com,2013-11-26 11:18:00,
2013-11-26 06:33:00,32.2,32.0,29.82,East,90,2.7,-999.0,99,-99.99,,,0.16,Acu-Link.com,2013-11-26 11:33:00,
2013-11-26 06:48:00,32.3,32.1,29.81,SSE,157,3.7,-999.0,99,-99.99,,,0.16,Acu-Link.com,2013-11-26 11:48:00,
2013-11-26 07:03:00,32.7,32.5,29.79,NNW,337,0.0,-999.0,99,-99.99,,,0.16,Acu-Link.com,2013-11-26 12:03:00,
2013-11-26 07:18:00,32.9,32.7,29.79,WNW,292,1.7,-999.0,99,-99.99,,,0.20,Acu-Link.com,2013-11-26 12:18:00,
2013-11-26 07:33:00,32.9,32.7,29.80,West,270,0.0,-999.0,99,-99.99,,,0.22,Acu-Link.com,2013-11-26 12:33:00,
2013-11-26 07:48:00,33.1,32.8,29.80,SSW,202,0.0,-999.0,99,-99.99,,,0.24,Acu-Link.com,2013-11-26 12:48:00,
2013-11-26 08:04:00,33.2,32.9,29.80,SSE,157,0.0,-999.0,99,-99.99,,,0.26,Acu-Link.com,2013-11-26 13:04:00,
2013-11-26 08:19:00,33.4,33.1,29.80,SE,135,0.0,-999.0,99,-99.99,,,0.28,Acu-Link.com,2013-11-26 13:19:00,
2013-11-26 08:34:00,33.4,33.1,29.80,ESE,112,0.0,-999.0,99,-99.99,,,0.28,Acu-Link.com,2013-11-26 13:34:00,
2013-11-26 08:49:00,33.4,33.1,29.79,ENE,67,0.0,-999.0,99,-99.99,,,0.30,Acu-Link.com,2013-11-26 13:49:00,
2013-11-26 09:04:00,33.4,33.1,29.78,East,90,0.0,-999.0,99,-99.99,,,0.32,Acu-Link.com,2013-11-26 14:04:00,
2013-11-26 09:19:00,33.6,33.3,29.78,NE,45,0.0,-999.0,99,-99.99,,,0.34,Acu-Link.com,2013-11-26 14:19:00,
2013-11-26 09:34:00,33.8,33.5,29.78,SW,225,0.0,-999.0,99,-99.99,,,0.36,Acu-Link.com,2013-11-26 14:34:00,
2013-11-26 09:49:00,34.0,33.7,29.78,NW,315,0.0,-999.0,99,-99.99,,,0.36,Acu-Link.com,2013-11-26 14:49:00,
2013-11-26 10:04:00,34.1,33.8,29.78,ENE,67,0.0,-999.0,99,-99.99,,,0.36,Acu-Link.com,2013-11-26 15:04:00,
2013-11-26 10:20:00,34.3,34.0,29.76,South,180,0.0,-999.0,99,-99.99,,,0.38,Acu-Link.com,2013-11-26 15:20:00,
2013-11-26 10:35:00,34.5,34.2,29.74,SSE,157,4.2,-999.0,99,-99.99,,,0.40,Acu-Link.com,2013-11-26 15:35:00,
2013-11-26 10:50:00,34.7,34.4,29.72,ESE,112,2.7,-999.0,99,-99.99,,,0.44,Acu-Link.com,2013-11-26 15:50:00,
2013-11-26 11:05:00,35.0,34.7,29.71,ESE,112,1.7,-999.0,99,-99.99,,,0.46,Acu-Link.com,2013-11-26 16:05:00,
2013-11-26 11:20:00,35.2,34.9,29.70,NE,45,2.2,-999.0,99,-99.99,,,0.46,Acu-Link.com,2013-11-26 16:20:00,
2013-11-26 11:35:00,35.8,35.5,29.68,East,90,0.0,-999.0,99,-99.99,,,0.50,Acu-Link.com,2013-11-26 16:35:00,
2013-11-26 11:50:00,36.3,36.0,29.66,ESE,112,2.2,-999.0,99,-99.99,,,0.54,Acu-Link.com,2013-11-26 16:50:00,
2013-11-26 12:06:00,36.7,36.4,29.64,ESE,112,2.2,-999.0,99,-99.99,,,0.54,Acu-Link.com,2013-11-26 17:06:00,
2013-11-26 12:21:00,36.8,36.5,29.62,South,180,2.2,-999.0,99,-99.99,,,0.58,Acu-Link.com,2013-11-26 17:21:00,
2013-11-26 12:36:00,37.4,37.1,29.61,WSW,247,0.0,-999.0,99,-99.99,,,0.64,Acu-Link.com,2013-11-26 17:36:00,
2013-11-26 12:51:00,37.7,37.4,29.59,South,180,3.7,-999.0,99,-99.99,,,0.73,Acu-Link.com,2013-11-26 17:51:00,
2013-11-26 13:06:00,38.3,38.0,29.59,South,180,1.7,-999.0,99,-99.99,,,0.76,Acu-Link.com,2013-11-26 18:06:00,
2013-11-26 13:21:00,38.6,38.3,29.57,ESE,112,0.0,-999.0,99,-99.99,,,0.76,Acu-Link.com,2013-11-26 18:21:00,
2013-11-26 13:36:00,39.4,39.1,29.57,SSE,157,0.0,-999.0,99,-99.99,,,0.80,Acu-Link.com,2013-11-26 18:36:00,
2013-11-26 13:51:00,39.7,39.4,29.57,NNE,22,0.0,-999.0,99,-99.99,,,0.82,Acu-Link.com,2013-11-26 18:51:00,
2013-11-26 14:06:00,40.3,40.0,29.55,East,90,0.0,-999.0,99,-99.99,,,0.86,Acu-Link.com,2013-11-26 19:06:00,
2013-11-26 14:22:00,40.6,40.3,29.55,NE,45,0.0,-999.0,99,-99.99,,,0.87,Acu-Link.com,2013-11-26 19:22:00,
2013-11-26 14:37:00,41.2,40.9,29.54,WSW,247,0.0,-999.0,99,-99.99,,,0.88,Acu-Link.com,2013-11-26 19:37:00,
2013-11-26 14:52:00,41.7,41.4,29.55,NW,315,0.0,-999.0,99,-99.99,,,0.89,Acu-Link.com,2013-11-26 19:52:00,
2013-11-26 15:07:00,42.2,41.9,29.54,WSW,247,0.0,-999.0,99,-99.99,,,0.92,Acu-Link.com,2013-11-26 20:07:00,
2013-11-26 15:22:00,43.0,42.7,29.53,South,180,0.0,-999.0,99,-99.99,,,0.92,Acu-Link.com,2013-11-26 20:22:00,
2013-11-26 15:37:00,43.7,43.4,29.53,ESE,112,0.0,-999.0,99,-99.99,,,0.92,Acu-Link.com,2013-11-26 20:37:00,
2013-11-26 15:52:00,44.0,43.7,29.52,NE,45,0.0,-999.0,99,-99.99,,,0.92,Acu-Link.com,2013-11-26 20:52:00,
2013-11-26 16:07:00,44.6,44.3,29.51,NE,45,0.0,-999.0,99,-99.99,,,0.92,Acu-Link.com,2013-11-26 21:07:00,
2013-11-26 16:22:00,45.1,44.8,29.49,ENE,67,0.0,-999.0,99,-99.99,,,0.93,Acu-Link.com,2013-11-26 21:22:00,
2013-11-26 16:38:00,45.3,45.0,29.48,SSE,157,2.2,-999.0,99,-99.99,,,0.93,Acu-Link.com,2013-11-26 21:38:00,
2013-11-26 16:53:00,45.3,45.0,29.47,ESE,112,0.0,-999.0,99,-99.99,,,0.94,Acu-Link.com,2013-11-26 21:53:00,
2013-11-26 17:08:00,45.5,45.2,29.47,SE,135,0.0,-999.0,99,-99.99,,,0.94,Acu-Link.com,2013-11-26 22:08:00,
2013-11-26 17:23:00,46.0,45.7,29.46,SE,135,2.2,-999.0,99,-99.99,,,0.94,Acu-Link.com,2013-11-26 22:23:00,
2013-11-26 17:38:00,46.0,45.7,29.48,West,270,0.0,-999.0,99,-99.99,,,0.94,Acu-Link.com,2013-11-26 22:38:00,
2013-11-26 17:53:00,46.0,45.7,29.48,SSW,202,0.0,-999.0,99,-99.99,,,0.94,Acu-Link.com,2013-11-26 22:53:00,
2013-11-26 18:08:00,46.0,45.7,29.48,SSW,202,0.0,-999.0,99,-99.99,,,0.97,Acu-Link.com,2013-11-26 23:08:00,
2013-11-26 18:23:00,46.0,45.7,29.49,SW,225,0.0,-999.0,99,-99.99,,,0.98,Acu-Link.com,2013-11-26 23:23:00,
2013-11-26 18:39:00,46.0,45.7,29.49,SW,225,0.0,-999.0,99,-99.99,,,0.98,Acu-Link.com,2013-11-26 23:39:00,
2013-11-26 18:54:00,46.0,45.7,29.49,South,180,0.0,-999.0,99,-99.99,,,0.98,Acu-Link.com,2013-11-26 23:54:00,
2013-11-26 19:09:00,46.0,45.7,29.44,NNE,22,0.0,-999.0,99,-99.99,,,0.98,Acu-Link.com,2013-11-27 00:09:00,
2013-11-26 19:24:00,46.0,45.7,29.48,WSW,247,0.0,-999.0,99,-99.99,,,0.99,Acu-Link.com,2013-11-27 00:24:00,
2013-11-26 19:39:00,46.2,45.9,29.48,West,270,3.2,-999.0,99,-99.99,,,0.99,Acu-Link.com,2013-11-27 00:39:00,
2013-11-26 19:54:00,45.1,44.8,29.49,WNW,292,1.7,-999.0,99,-99.99,,,1.00,Acu-Link.com,2013-11-27 00:54:00,
2013-11-26 20:09:00,43.9,43.6,29.51,WNW,292,0.0,-999.0,99,-99.99,,,1.00,Acu-Link.com,2013-11-27 01:09:00,
2013-11-26 20:25:00,43.1,42.8,29.50,ESE,112,2.2,-999.0,99,-99.99,,,1.00,Acu-Link.com,2013-11-27 01:25:00,
2013-11-26 20:40:00,42.6,42.3,29.51,WSW,247,1.1,-999.0,99,-99.99,,,1.00,Acu-Link.com,2013-11-27 01:40:00,
2013-11-26 20:55:00,42.4,42.1,29.53,WNW,292,1.1,-999.0,99,-99.99,,,1.00,Acu-Link.com,2013-11-27 01:55:00,
2013-11-26 21:11:00,42.2,41.9,29.51,West,270,4.2,-999.0,99,-99.99,,,1.00,Acu-Link.com,2013-11-27 02:11:00,
2013-11-26 21:26:00,41.9,41.6,29.49,WSW,247,2.7,-999.0,99,-99.99,,,1.00,Acu-Link.com,2013-11-27 02:26:00,
2013-11-26 21:41:00,41.9,41.6,29.50,South,180,0.0,-999.0,99,-99.99,,,1.00,Acu-Link.com,2013-11-27 02:41:00,
2013-11-26 21:56:00,41.9,41.6,29.50,NW,315,0.0,-999.0,99,-99.99,,,1.00,Acu-Link.com,2013-11-27 02:56:00,
2013-11-26 22:12:00,41.7,41.4,29.49,NNW,337,2.2,-999.0,99,-99.99,,,1.00,Acu-Link.com,2013-11-27 03:12:00,
2013-11-26 22:27:00,41.7,41.4,29.49,WNW,292,4.7,-999.0,99,-99.99,,,1.01,Acu-Link.com,2013-11-27 03:27:00,
2013-11-26 22:42:00,41.7,41.4,29.44,NNE,22,2.2,-999.0,99,-99.99,,,1.02,Acu-Link.com,2013-11-27 03:42:00,
2013-11-26 22:57:00,41.7,41.4,29.50,West,270,0.0,-999.0,99,-99.99,,,1.02,Acu-Link.com,2013-11-27 03:57:00,
2013-11-26 23:12:00,41.7,41.4,29.49,ENE,67,0.0,-999.0,99,-99.99,,,1.02,Acu-Link.com,2013-11-27 04:12:00,
2013-11-26 23:27:00,41.7,41.4,29.47,WSW,247,6.3,-999.0,99,-99.99,,,1.02,Acu-Link.com,2013-11-27 04:27:00,
2013-11-26 23:42:00,41.3,41.0,29.46,West,270,2.2,-999.0,99,-99.99,,,1.02,Acu-Link.com,2013-11-27 04:42:00,
2013-11-26 23:58:00,41.2,40.9,29.46,North,0,0.0,-999.0,99,-99.99,,,1.02,Acu-Link.com,2013-11-27 04:58:00,